createdAt,value
2023-01-21T00:01:07.182Z,-6.60
2023-01-21T00:03:34.375Z,-6.50
2023-01-21T00:06:01.759Z,-6.40
2023-01-21T00:08:29.622Z,-6.40
2023-01-21T00:10:56.410Z,-6.40
2023-01-21T00:13:23.431Z,-6.40
2023-01-21T00:15:50.781Z,-6.40
2023-01-21T00:18:17.742Z,-6.40
2023-01-21T00:20:46.178Z,-6.30
2023-01-21T00:23:13.225Z,-6.30
2023-01-21T00:25:40.059Z,-6.30
2023-01-21T00:28:06.874Z,-6.30
2023-01-21T00:30:34.053Z,-6.30
2023-01-21T00:33:00.880Z,-6.20
2023-01-21T00:35:27.636Z,-6.20
2023-01-21T00:37:54.678Z,-6.20
2023-01-21T00:40:21.803Z,-6.30
2023-01-21T00:42:48.587Z,-6.20
2023-01-21T00:45:15.499Z,-6.50
2023-01-21T00:47:42.311Z,-6.50
2023-01-21T00:50:10.633Z,-6.50
2023-01-21T00:52:38.571Z,-6.60
2023-01-21T00:55:06.263Z,-6.70
2023-01-21T00:57:33.176Z,-6.70
2023-01-21T01:00:00.484Z,-6.80
2023-01-21T01:02:27.410Z,-6.80
2023-01-21T01:04:54.206Z,-6.80
2023-01-21T01:07:20.986Z,-6.80
2023-01-21T01:09:47.753Z,-6.90
2023-01-21T01:12:14.503Z,-6.90
2023-01-21T01:14:41.332Z,-6.90
2023-01-21T01:17:08.928Z,-7.00
2023-01-21T01:19:35.692Z,-7.00
2023-01-21T01:22:02.454Z,-7.00
2023-01-21T01:24:29.288Z,-7.00
2023-01-21T01:26:56.055Z,-7.10
2023-01-21T01:29:22.849Z,-7.10
2023-01-21T01:31:49.643Z,-7.20
2023-01-21T01:34:16.557Z,-7.20
2023-01-21T01:36:43.404Z,-7.30
2023-01-21T01:39:10.303Z,-7.20
2023-01-21T01:41:37.119Z,-7.30
2023-01-21T01:44:26.582Z,-7.50
2023-01-21T01:46:59.847Z,-7.50
2023-01-21T01:49:26.762Z,-7.50
2023-01-21T01:52:01.280Z,-7.60
2023-01-21T01:54:35.474Z,-7.60
2023-01-21T01:57:06.759Z,-7.60
2023-01-21T01:59:34.225Z,-7.40
2023-01-21T02:02:11.877Z,-7.60
2023-01-21T02:04:52.095Z,-7.70
2023-01-21T02:07:22.392Z,-7.70
2023-01-21T02:09:49.539Z,-7.70
2023-01-21T02:12:18.074Z,-7.70
2023-01-21T02:14:46.341Z,-7.70
2023-01-21T02:17:39.569Z,-7.80
2023-01-21T02:20:32.274Z,-7.80
2023-01-21T02:23:29.328Z,-7.80
2023-01-21T02:26:35.247Z,-7.90
2023-01-21T02:29:21.880Z,-7.90
2023-01-21T02:32:39.838Z,-7.90
2023-01-21T02:35:19.849Z,-8.00
2023-01-21T02:38:06.985Z,-8.00
2023-01-21T02:41:11.425Z,-8.10
2023-01-21T02:44:28.317Z,-8.10
2023-01-21T02:47:26.586Z,-8.10
2023-01-21T02:50:05.131Z,-8.10
2023-01-21T02:52:31.961Z,-8.10
2023-01-21T02:55:01.967Z,-8.10
2023-01-21T02:57:47.740Z,-8.10
2023-01-21T03:00:31.707Z,-8.20
2023-01-21T03:03:49.160Z,-8.20
2023-01-21T03:06:28.128Z,-8.20
2023-01-21T03:09:06.051Z,-8.20
2023-01-21T03:11:33.558Z,-8.20
2023-01-21T03:14:53.552Z,-8.30
2023-01-21T03:17:49.353Z,-8.20
2023-01-21T03:20:34.671Z,-8.30
2023-01-21T03:23:08.233Z,-8.20
2023-01-21T03:25:37.695Z,-8.20
2023-01-21T03:28:11.999Z,-8.10
2023-01-21T03:30:45.736Z,-8.10
2023-01-21T03:33:15.399Z,-8.10
2023-01-21T03:35:47.340Z,-8.00
2023-01-21T03:38:27.047Z,-7.90
2023-01-21T03:41:03.262Z,-7.70
2023-01-21T03:43:30.126Z,-7.60
2023-01-21T03:46:26.195Z,-7.50
2023-01-21T03:49:24.821Z,-7.50
2023-01-21T03:51:58.904Z,-7.60
2023-01-21T03:54:25.737Z,-7.80
2023-01-21T03:56:52.614Z,-7.80
2023-01-21T03:59:19.447Z,-7.80
2023-01-21T04:01:46.200Z,-7.90
2023-01-21T04:04:13.027Z,-7.90
2023-01-21T04:06:39.789Z,-8.00
2023-01-21T04:09:07.852Z,-8.10
2023-01-21T04:11:34.733Z,-8.10
2023-01-21T04:14:01.658Z,-8.10
2023-01-21T04:16:28.987Z,-8.10
2023-01-21T04:18:55.878Z,-8.10
2023-01-21T04:21:22.720Z,-8.10
2023-01-21T04:23:49.507Z,-8.10
2023-01-21T04:26:16.488Z,-8.20
2023-01-21T04:28:44.334Z,-8.30
2023-01-21T04:31:11.113Z,-8.40
2023-01-21T04:33:38.220Z,-8.40
2023-01-21T04:36:05.523Z,-8.40
2023-01-21T04:38:32.374Z,-8.40
2023-01-21T04:40:59.123Z,-8.40
2023-01-21T04:43:25.923Z,-8.40
2023-01-21T04:45:52.805Z,-8.50
2023-01-21T04:48:19.583Z,-8.60
2023-01-21T04:50:47.079Z,-8.60
2023-01-21T04:53:14.086Z,-8.60
2023-01-21T04:55:40.910Z,-8.60
2023-01-21T04:58:07.716Z,-8.60
2023-01-21T05:00:34.465Z,-8.60
2023-01-21T05:03:01.282Z,-8.70
2023-01-21T05:05:28.010Z,-8.70
2023-01-21T05:07:55.476Z,-8.70
2023-01-21T05:10:22.580Z,-8.80
2023-01-21T05:12:49.424Z,-8.80
2023-01-21T05:15:16.625Z,-8.80
2023-01-21T05:17:43.379Z,-8.80
2023-01-21T05:20:11.204Z,-8.80
2023-01-21T05:22:38.602Z,-8.80
2023-01-21T05:25:06.445Z,-8.80
2023-01-21T05:27:33.390Z,-8.80
2023-01-21T05:30:00.165Z,-8.80
2023-01-21T05:32:26.867Z,-8.80
2023-01-21T05:34:53.685Z,-8.80
2023-01-21T05:37:20.577Z,-8.80
2023-01-21T05:39:47.339Z,-8.80
2023-01-21T05:42:14.119Z,-8.80
2023-01-21T05:44:41.075Z,-8.80
2023-01-21T05:47:08.723Z,-8.80
2023-01-21T05:49:36.071Z,-8.80
2023-01-21T05:52:02.911Z,-8.80
2023-01-21T05:54:29.726Z,-8.90
2023-01-21T05:56:56.688Z,-8.90
2023-01-21T05:59:23.480Z,-8.90
2023-01-21T06:01:50.178Z,-8.90
2023-01-21T06:04:17.001Z,-9.00
2023-01-21T06:06:43.830Z,-9.00
2023-01-21T06:09:10.653Z,-9.10
2023-01-21T06:11:37.485Z,-9.10
2023-01-21T06:14:04.199Z,-9.10
2023-01-21T06:16:30.975Z,-9.20
2023-01-21T06:18:58.818Z,-9.20
2023-01-21T06:21:25.648Z,-9.30
2023-01-21T06:23:52.436Z,-9.30
2023-01-21T06:26:19.207Z,-9.40
2023-01-21T06:28:45.958Z,-9.40
2023-01-21T06:31:13.077Z,-9.40
2023-01-21T06:33:39.961Z,-9.30
2023-01-21T06:36:07.298Z,-9.40
2023-01-21T06:38:35.992Z,-9.40
2023-01-21T06:41:03.608Z,-9.40
2023-01-21T06:43:30.499Z,-9.50
2023-01-21T06:45:57.329Z,-9.50
2023-01-21T06:48:24.173Z,-9.50
2023-01-21T06:50:51.031Z,-9.60
2023-01-21T06:53:17.844Z,-9.60
2023-01-21T06:55:44.802Z,-9.60
2023-01-21T06:58:11.545Z,-9.60
2023-01-21T07:00:38.342Z,-9.70
2023-01-21T07:03:05.180Z,-9.70
2023-01-21T07:05:31.981Z,-9.70
2023-01-21T07:07:59.667Z,-9.70
2023-01-21T07:10:26.608Z,-9.70
2023-01-21T07:12:53.328Z,-9.70
2023-01-21T07:15:20.156Z,-9.80
2023-01-21T07:17:46.965Z,-9.60
2023-01-21T07:20:13.729Z,-9.60
2023-01-21T07:22:40.666Z,-9.70
2023-01-21T07:25:08.300Z,-9.80
2023-01-21T07:27:35.021Z,-9.80
2023-01-21T07:30:01.773Z,-9.70
2023-01-21T07:32:28.573Z,-9.80
2023-01-21T07:34:55.365Z,-9.60
2023-01-21T07:37:22.165Z,-9.40
2023-01-21T07:39:49.020Z,-9.10
2023-01-21T07:42:15.844Z,-9.00
2023-01-21T07:44:42.656Z,-8.90
2023-01-21T07:47:10.405Z,-8.80
2023-01-21T07:49:37.638Z,-8.70
2023-01-21T07:52:04.573Z,-8.60
2023-01-21T07:54:31.471Z,-8.40
2023-01-21T07:56:58.606Z,-8.30
2023-01-21T07:59:25.543Z,-8.10
2023-01-21T08:01:52.463Z,-7.90
2023-01-21T08:04:19.492Z,-7.90
2023-01-21T08:06:46.306Z,-7.80
2023-01-21T08:09:13.345Z,-7.70
2023-01-21T08:11:40.131Z,-7.40
2023-01-21T08:14:06.912Z,-7.40
2023-01-21T08:16:33.807Z,-7.20
2023-01-21T08:19:00.620Z,-6.90
2023-01-21T08:21:27.439Z,-6.70
2023-01-21T08:23:54.251Z,-6.50
2023-01-21T08:26:21.090Z,-6.30
2023-01-21T08:28:48.144Z,-6.20
2023-01-21T08:31:15.209Z,-6.00
2023-01-21T08:33:42.171Z,-5.90
2023-01-21T08:36:09.592Z,-5.70
2023-01-21T08:38:37.282Z,-5.50
2023-01-21T08:41:05.872Z,-5.30
2023-01-21T08:43:32.843Z,-5.20
2023-01-21T08:46:01.635Z,-5.20
2023-01-21T08:48:29.541Z,-5.20
2023-01-21T08:51:00.755Z,-5.10
2023-01-21T08:53:28.010Z,-4.90
2023-01-21T08:56:00.710Z,-4.80
2023-01-21T08:58:29.327Z,-4.50
2023-01-21T09:00:56.702Z,-4.20
2023-01-21T09:03:24.118Z,-3.80
2023-01-21T09:05:54.274Z,-3.40
2023-01-21T09:08:21.122Z,-3.10
2023-01-21T09:11:02.833Z,-2.90
2023-01-21T09:13:33.523Z,-2.60
2023-01-21T09:16:01.628Z,-2.30
2023-01-21T09:18:28.675Z,-2.10
2023-01-21T09:21:01.701Z,-1.90
2023-01-21T09:23:32.112Z,-1.90
2023-01-21T09:26:18.491Z,-1.90
2023-01-21T09:28:58.389Z,-1.80
2023-01-21T09:31:29.941Z,-1.80
2023-01-21T09:34:05.178Z,-1.70
2023-01-21T09:36:34.220Z,-1.70
2023-01-21T09:39:01.102Z,-1.60
2023-01-21T09:41:49.116Z,-1.70
2023-01-21T09:44:39.958Z,-1.60
2023-01-21T09:47:37.409Z,-1.60
2023-01-21T09:50:19.399Z,-1.60
2023-01-21T09:53:10.816Z,-1.60
2023-01-21T09:55:49.669Z,-1.50
2023-01-21T09:58:33.694Z,-1.40
2023-01-21T10:01:06.157Z,-1.40
2023-01-21T10:03:54.636Z,-1.30
2023-01-21T10:06:44.967Z,-1.30
2023-01-21T10:09:37.406Z,-1.50
2023-01-21T10:12:26.578Z,-1.50
2023-01-21T10:15:45.476Z,-1.60
2023-01-21T10:18:36.071Z,-1.70
2023-01-21T10:21:43.779Z,-1.60
2023-01-21T10:24:20.428Z,-1.60
2023-01-21T10:26:52.691Z,-1.50
2023-01-21T10:29:25.482Z,-1.40
2023-01-21T10:32:07.177Z,-1.30
2023-01-21T10:34:43.078Z,-1.40
2023-01-21T10:37:36.979Z,-1.40
2023-01-21T10:40:45.339Z,-1.30
2023-01-21T10:43:43.877Z,-1.10
2023-01-21T10:47:05.924Z,-0.90
2023-01-21T10:50:00.431Z,-0.80
2023-01-21T10:53:01.471Z,-0.70
2023-01-21T10:55:52.335Z,-0.60
2023-01-21T10:58:33.469Z,-0.60
2023-01-21T11:01:06.760Z,-0.70
2023-01-21T11:03:52.717Z,-0.90
2023-01-21T11:06:22.648Z,-0.80
2023-01-21T11:08:56.797Z,-0.80
2023-01-21T11:11:32.126Z,-0.80
2023-01-21T11:13:59.089Z,-0.70
2023-01-21T11:16:46.757Z,-0.60
2023-01-21T11:19:23.330Z,-0.50
2023-01-21T11:22:12.583Z,-0.40
2023-01-21T11:24:46.972Z,-0.30
2023-01-21T11:27:38.171Z,-0.40
2023-01-21T11:30:25.975Z,-0.30
2023-01-21T11:32:54.339Z,-0.20
2023-01-21T11:35:23.111Z,-0.20
2023-01-21T11:37:50.201Z,-0.20
2023-01-21T11:40:25.889Z,-0.20
2023-01-21T11:42:56.874Z,-0.20
2023-01-21T11:45:36.789Z,-0.20
2023-01-21T11:48:20.817Z,-0.20
2023-01-21T11:50:47.787Z,-0.20
2023-01-21T11:53:17.856Z,-0.10
2023-01-21T11:55:52.381Z,0.00
2023-01-21T11:58:37.060Z,0.10
2023-01-21T12:01:11.148Z,0.20
2023-01-21T12:03:42.835Z,0.30
2023-01-21T12:06:20.733Z,0.40
2023-01-21T12:08:52.794Z,0.40
2023-01-21T12:11:24.672Z,0.40
2023-01-21T12:14:11.367Z,0.50
2023-01-21T12:16:46.582Z,0.40
2023-01-21T12:19:49.827Z,0.50
2023-01-21T12:23:01.442Z,0.40
2023-01-21T12:25:59.756Z,0.30
2023-01-21T12:29:07.588Z,0.30
2023-01-21T12:31:50.288Z,0.40
2023-01-21T12:34:47.895Z,0.40
2023-01-21T12:38:07.690Z,0.40
2023-01-21T12:41:08.965Z,0.50
2023-01-21T12:43:43.619Z,0.60
2023-01-21T12:46:30.199Z,0.70
2023-01-21T12:49:18.560Z,0.40
2023-01-21T12:51:52.778Z,0.40
2023-01-21T12:54:27.485Z,0.30
2023-01-21T12:57:09.762Z,0.40
2023-01-21T12:59:58.446Z,0.40
2023-01-21T13:02:40.865Z,0.20
2023-01-21T13:05:21.802Z,0.10
2023-01-21T13:08:16.882Z,0.10
2023-01-21T13:10:53.362Z,0.00
2023-01-21T13:13:32.218Z,-0.10
2023-01-21T13:16:06.772Z,-0.10
2023-01-21T13:18:39.268Z,-0.10
2023-01-21T13:21:38.990Z,0.00
2023-01-21T13:24:21.985Z,-0.20
2023-01-21T13:27:09.837Z,-0.20
2023-01-21T13:29:57.240Z,-0.10
2023-01-21T13:32:45.239Z,-0.10
2023-01-21T13:35:55.300Z,0.00
2023-01-21T13:38:39.474Z,-0.10
2023-01-21T13:41:30.474Z,-0.20
2023-01-21T13:44:28.560Z,-0.20
2023-01-21T13:47:16.454Z,-0.20
2023-01-21T13:49:48.969Z,-0.10
2023-01-21T13:52:30.007Z,-0.10
2023-01-21T13:55:45.574Z,0.00
2023-01-21T13:58:30.547Z,0.10
2023-01-21T14:01:16.545Z,0.10
2023-01-21T14:04:09.743Z,0.10
2023-01-21T14:06:53.100Z,0.10
2023-01-21T14:09:38.418Z,0.00
2023-01-21T14:12:19.993Z,0.00
2023-01-21T14:15:31.197Z,0.10
2023-01-21T14:18:33.051Z,0.20
2023-01-21T14:21:33.771Z,0.40
2023-01-21T14:24:39.826Z,0.40
2023-01-21T14:27:50.099Z,0.60
2023-01-21T14:30:29.403Z,0.60
2023-01-21T14:33:01.188Z,0.70
2023-01-21T14:36:06.288Z,0.70
2023-01-21T14:38:52.107Z,0.60
2023-01-21T14:41:19.643Z,0.60
2023-01-21T14:43:50.778Z,0.50
2023-01-21T14:46:29.888Z,0.50
2023-01-21T14:49:09.248Z,0.40
2023-01-21T14:51:43.781Z,0.40
2023-01-21T14:54:18.310Z,0.30
2023-01-21T14:57:10.278Z,0.20
2023-01-21T14:59:46.177Z,0.20
2023-01-21T15:02:41.309Z,0.10
2023-01-21T15:05:16.706Z,-0.10
2023-01-21T15:07:47.194Z,-0.10
2023-01-21T15:10:33.890Z,-0.10
2023-01-21T15:13:06.475Z,-0.20
2023-01-21T15:15:40.427Z,-0.30
2023-01-21T15:18:10.287Z,-0.30
2023-01-21T15:20:42.886Z,-0.30
2023-01-21T15:23:29.028Z,-0.40
2023-01-21T15:26:20.212Z,-0.40
2023-01-21T15:28:57.689Z,-0.40
2023-01-21T15:31:25.021Z,-0.40
2023-01-21T15:34:03.795Z,-0.50
2023-01-21T15:36:38.658Z,-0.50
2023-01-21T15:39:33.934Z,-0.60
2023-01-21T15:42:03.405Z,-0.60
2023-01-21T15:45:23.744Z,-0.60
2023-01-21T15:48:42.538Z,-0.70
2023-01-21T15:51:40.243Z,-0.80
2023-01-21T15:54:42.244Z,-0.80
2023-01-21T15:57:47.803Z,-0.80
2023-01-21T16:00:34.213Z,-0.90
2023-01-21T16:03:28.996Z,-1.00
2023-01-21T16:06:49.520Z,-1.00
2023-01-21T16:10:12.077Z,-1.00
2023-01-21T16:13:09.677Z,-1.00
2023-01-21T16:16:05.296Z,-1.00
2023-01-21T16:18:50.474Z,-1.00
2023-01-21T16:21:31.742Z,-1.10
2023-01-21T16:24:05.620Z,-1.10
2023-01-21T16:26:33.182Z,-1.10
2023-01-21T16:29:00.276Z,-1.10
2023-01-21T16:31:27.336Z,-1.10
2023-01-21T16:33:54.481Z,-1.10
2023-01-21T16:36:21.297Z,-1.20
2023-01-21T16:38:48.383Z,-1.10
2023-01-21T16:41:15.381Z,-1.10
2023-01-21T16:44:02.047Z,-1.20
2023-01-21T16:46:40.262Z,-1.20
2023-01-21T16:49:16.153Z,-1.20
2023-01-21T16:51:56.433Z,-1.20
2023-01-21T16:54:33.702Z,-1.30
2023-01-21T16:57:17.058Z,-1.20
2023-01-21T16:59:49.961Z,-1.20
2023-01-21T17:02:43.276Z,-1.20
2023-01-21T17:05:14.615Z,-1.20
2023-01-21T17:07:48.348Z,-1.20
2023-01-21T17:10:15.035Z,-1.20
2023-01-21T17:12:59.416Z,-1.10
2023-01-21T17:15:33.359Z,-1.10
2023-01-21T17:18:01.711Z,-1.10
2023-01-21T17:20:45.852Z,-1.20
2023-01-21T17:23:31.031Z,-1.20
2023-01-21T17:26:03.530Z,-1.20
2023-01-21T17:28:53.585Z,-1.20
2023-01-21T17:31:30.714Z,-1.20
2023-01-21T17:34:08.518Z,-1.20
2023-01-21T17:36:41.038Z,-1.20
2023-01-21T17:39:10.052Z,-1.20
2023-01-21T17:41:41.209Z,-1.20
2023-01-21T17:44:23.497Z,-1.20
2023-01-21T17:46:54.164Z,-1.30
2023-01-21T17:49:25.917Z,-1.20
2023-01-21T17:51:54.378Z,-1.20
2023-01-21T17:54:27.822Z,-1.20
2023-01-21T17:56:57.965Z,-1.20
2023-01-21T17:59:37.585Z,-1.20
2023-01-21T18:02:17.452Z,-1.20
2023-01-21T18:04:44.506Z,-1.20
2023-01-21T18:07:32.129Z,-1.10
2023-01-21T18:10:03.077Z,-1.20
2023-01-21T18:12:29.948Z,-1.20
2023-01-21T18:14:56.737Z,-1.20
2023-01-21T18:17:24.824Z,-1.20
2023-01-21T18:19:51.718Z,-1.20
2023-01-21T18:22:31.839Z,-1.20
2023-01-21T18:25:00.388Z,-1.20
2023-01-21T18:27:27.211Z,-1.20
2023-01-21T18:29:54.477Z,-1.20
2023-01-21T18:32:21.278Z,-1.20
2023-01-21T18:34:48.098Z,-1.20
2023-01-21T18:37:18.502Z,-1.20
2023-01-21T18:39:46.081Z,-1.20
2023-01-21T18:42:16.999Z,-1.20
2023-01-21T18:44:44.945Z,-1.20
2023-01-21T18:47:17.980Z,-1.20
2023-01-21T18:49:45.713Z,-1.20
2023-01-21T18:52:19.688Z,-1.20
2023-01-21T18:54:47.513Z,-1.10
2023-01-21T18:57:18.945Z,-1.10
2023-01-21T18:59:45.812Z,-1.10
2023-01-21T19:02:17.235Z,-1.10
2023-01-21T19:04:45.083Z,-1.10
2023-01-21T19:07:20.727Z,-1.10
2023-01-21T19:09:50.818Z,-1.00
2023-01-21T19:12:24.410Z,-1.00
2023-01-21T19:14:51.214Z,-1.00
2023-01-21T19:17:32.369Z,-1.00
2023-01-21T19:19:59.343Z,-1.00
2023-01-21T19:22:26.148Z,-1.00
2023-01-21T19:24:52.880Z,-1.00
2023-01-21T19:27:33.751Z,-1.00
2023-01-21T19:30:00.750Z,-1.00
2023-01-21T19:32:27.662Z,-1.00
2023-01-21T19:34:56.817Z,-1.00
2023-01-21T19:37:25.199Z,-1.00
2023-01-21T19:39:51.981Z,-1.00
2023-01-21T19:42:18.895Z,-1.00
2023-01-21T19:44:45.683Z,-1.00
2023-01-21T19:47:23.562Z,-1.00
2023-01-21T19:49:50.779Z,-1.00
2023-01-21T19:52:17.606Z,-1.00
2023-01-21T19:54:44.395Z,-1.00
2023-01-21T19:57:16.567Z,-0.90
2023-01-21T19:59:50.511Z,-0.90
2023-01-21T20:02:17.402Z,-0.90
2023-01-21T20:04:44.315Z,-0.90
2023-01-21T20:07:16.223Z,-0.90
2023-01-21T20:09:43.050Z,-0.90
2023-01-21T20:12:12.819Z,-0.80
2023-01-21T20:14:39.605Z,-0.80
2023-01-21T20:17:06.562Z,-0.90
2023-01-21T20:19:33.405Z,-0.90
2023-01-21T20:22:02.480Z,-0.80
2023-01-21T20:24:33.418Z,-0.80
2023-01-21T20:27:04.586Z,-0.80
2023-01-21T20:29:32.652Z,-0.80
2023-01-21T20:31:59.548Z,-0.80
2023-01-21T20:34:27.621Z,-0.70
2023-01-21T20:36:55.593Z,-0.70
2023-01-21T20:39:22.437Z,-0.70
2023-01-21T20:41:49.208Z,-0.70
2023-01-21T20:44:16.240Z,-0.70
2023-01-21T20:46:43.864Z,-0.70
2023-01-21T20:49:12.288Z,-0.70
2023-01-21T20:51:39.134Z,-0.70
2023-01-21T20:54:06.073Z,-0.70
2023-01-21T20:56:33.225Z,-0.70
2023-01-21T20:59:00.410Z,-0.70
2023-01-21T21:01:28.616Z,-0.70
2023-01-21T21:03:55.682Z,-0.70
2023-01-21T21:06:27.845Z,-0.70
2023-01-21T21:08:55.501Z,-0.60
2023-01-21T21:11:22.816Z,-0.60
2023-01-21T21:13:52.220Z,-0.60
2023-01-21T21:16:27.705Z,-0.60
2023-01-21T21:18:56.167Z,-0.60
2023-01-21T21:21:24.099Z,-0.50
2023-01-21T21:23:53.037Z,-0.50
2023-01-21T21:26:22.960Z,-0.50
2023-01-21T21:28:54.541Z,-0.50
2023-01-21T21:31:22.648Z,-0.50
2023-01-21T21:33:49.719Z,-0.50
2023-01-21T21:36:20.022Z,-0.40
2023-01-21T21:38:48.285Z,-0.40
2023-01-21T21:41:42.609Z,-0.30
2023-01-21T21:44:10.864Z,-0.40
2023-01-21T21:46:57.271Z,-0.40
2023-01-21T21:49:25.083Z,-0.40
2023-01-21T21:51:52.021Z,-0.40
2023-01-21T21:54:19.575Z,-0.30
2023-01-21T21:56:47.604Z,-0.30
2023-01-21T21:59:15.215Z,-0.30
2023-01-21T22:01:43.776Z,-0.30
2023-01-21T22:04:11.462Z,-0.30
2023-01-21T22:06:38.443Z,-0.30
2023-01-21T22:09:06.248Z,-0.30
2023-01-21T22:11:33.143Z,-0.30
2023-01-21T22:14:03.739Z,-0.30
2023-01-21T22:16:31.908Z,-0.30
2023-01-21T22:19:00.405Z,-0.30
2023-01-21T22:21:34.143Z,-0.30
2023-01-21T22:24:02.955Z,-0.30
2023-01-21T22:26:30.503Z,-0.30
2023-01-21T22:28:57.354Z,-0.30
2023-01-21T22:31:27.786Z,-0.30
2023-01-21T22:33:55.708Z,-0.30
2023-01-21T22:36:25.908Z,-0.30
2023-01-21T22:38:53.575Z,-0.30
2023-01-21T22:41:24.139Z,-0.30
2023-01-21T22:43:52.146Z,-0.30
2023-01-21T22:46:30.029Z,-0.30
2023-01-21T22:48:58.249Z,-0.30
2023-01-21T22:51:25.660Z,-0.20
2023-01-21T22:53:53.874Z,-0.30
2023-01-21T22:56:35.634Z,-0.30
2023-01-21T22:59:10.827Z,-0.30
2023-01-21T23:01:38.068Z,-0.30
2023-01-21T23:04:05.087Z,-0.30
2023-01-21T23:06:31.891Z,-0.40
2023-01-21T23:08:58.746Z,-0.40
2023-01-21T23:11:25.508Z,-0.40
2023-01-21T23:13:54.285Z,-0.40
2023-01-21T23:16:21.728Z,-0.40
2023-01-21T23:18:48.858Z,-0.50
2023-01-21T23:21:20.101Z,-0.50
2023-01-21T23:23:47.474Z,-0.50
2023-01-21T23:26:15.901Z,-0.50
2023-01-21T23:28:43.174Z,-0.50
2023-01-21T23:31:16.834Z,-0.50
2023-01-21T23:33:44.459Z,-0.50
2023-01-21T23:36:15.329Z,-0.50
2023-01-21T23:38:42.939Z,-0.50
2023-01-21T23:41:14.598Z,-0.50
2023-01-21T23:43:41.390Z,-0.50
2023-01-21T23:46:16.220Z,-0.50
2023-01-21T23:48:43.294Z,-0.50
2023-01-21T23:51:14.434Z,-0.50
2023-01-21T23:53:41.628Z,-0.50
2023-01-21T23:56:13.136Z,-0.50
2023-01-21T23:58:40.546Z,-0.50
